Weather at Athens Eleftherios Venizelos International Airport

Public forecast

Using degrees Celsius for public forecast. Weather courtesy of forecast.io.

Current aviation weather report (METAR) for Athens Eleftherios Venizelos International Airport

Retrieved 2022/08/19 14:20 UTC (39 minutes ago):

LGAV 191420Z 05008KT 020V080 CAVOK 36/12 Q1009 NOSIG

Aviation forecast (TAF) for Athens Eleftherios Venizelos International Airport

Retrieved 2022/08/19 12:12 UTC (3 hours ago):

TAF TAF LGAV 191100Z 1912/2012 06010KT 9999 FEW025